Time;durP1;ratioP1;P1;durP2;ratioP2;P2;SDS_P1;SDS_P2;PMS_P1;PMS_P2;Temp;Humidity;BMP_temperature;BMP_pressure;BME280_temperature;BME280_humidity;BME280_pressure;Samples;Min_cycle;Max_cycle;Signal;HPM_P1;HPM_P2
2022/11/02 00:02:21;;;;;;;6.00;5.23;;;12.70;99.90;14.20;97398.00;;;;5029554;28;20736;-90
2022/11/02 00:05:14;;;;;;;6.40;5.30;;;12.70;99.90;14.30;97408.00;;;;5029418;28;20248;-90
2022/11/02 00:08:03;;;;;;;21.20;8.20;;;12.70;99.90;14.30;97407.00;;;;5025950;28;20219;-89
2022/11/02 00:10:52;;;;;;;9.83;5.73;;;12.80;99.90;14.10;97411.00;;;;5031464;28;20250;-89
2022/11/02 00:13:41;;;;;;;8.37;5.90;;;12.80;99.90;14.00;97414.00;;;;5023636;28;20225;-90
2022/11/02 00:16:30;;;;;;;6.00;5.40;;;12.70;99.90;14.20;97411.00;;;;5018575;28;20245;-90
2022/11/02 00:19:19;;;;;;;6.23;5.63;;;12.70;99.90;14.30;97413.00;;;;5030053;28;20208;-90
2022/11/02 00:22:09;;;;;;;8.03;6.00;;;12.70;99.90;14.10;97411.00;;;;5023810;28;20205;-89
2022/11/02 00:24:58;;;;;;;7.13;5.77;;;12.70;99.90;13.80;97424.00;;;;5020170;28;20205;-90
2022/11/02 00:27:47;;;;;;;6.03;5.47;;;12.60;99.90;13.90;97417.00;;;;5029178;28;20201;-89
2022/11/02 00:30:37;;;;;;;7.10;5.67;;;12.60;99.90;14.00;97416.00;;;;5029978;28;20206;-90
2022/11/02 00:33:26;;;;;;;8.03;5.87;;;12.60;99.90;14.10;97423.00;;;;5021805;28;20218;-90
2022/11/02 00:36:16;;;;;;;10.33;5.33;;;12.60;99.90;14.00;97420.00;;;;5025896;28;20291;-90
2022/11/02 00:39:06;;;;;;;6.10;5.30;;;12.60;99.90;14.00;97418.00;;;;5026078;28;20229;-90
2022/11/02 00:41:55;;;;;;;6.27;5.67;;;12.60;99.90;14.00;97416.00;;;;5026182;28;20247;-90
2022/11/02 00:44:44;;;;;;;11.13;5.70;;;12.60;99.90;14.20;97422.00;;;;5027808;28;20291;-89
2022/11/02 00:47:33;;;;;;;5.67;4.67;;;12.60;99.90;14.20;97423.00;;;;5028359;28;20732;-89
2022/11/02 00:50:22;;;;;;;11.23;6.23;;;12.70;99.90;14.30;97416.00;;;;5021811;28;20295;-89
2022/11/02 00:53:10;;;;;;;7.10;6.40;;;12.70;99.90;14.30;97421.00;;;;5030018;28;20221;-90
2022/11/02 00:56:01;;;;;;;6.67;5.73;;;12.70;99.90;14.10;97420.00;;;;5029503;28;20650;-89
2022/11/02 00:58:49;;;;;;;12.00;5.93;;;12.70;99.90;13.80;97417.00;;;;5023865;28;20233;-90
2022/11/02 01:01:38;;;;;;;6.73;5.27;;;12.70;99.90;13.80;97414.00;;;;5025234;28;20251;-91
2022/11/02 01:04:27;;;;;;;8.37;5.90;;;12.60;99.90;14.00;97410.00;;;;5026110;28;20240;-90
2022/11/02 01:07:16;;;;;;;7.83;7.23;;;12.60;99.90;14.00;97406.00;;;;5019089;28;20206;-90
2022/11/02 01:10:06;;;;;;;7.13;5.00;;;12.60;99.90;13.90;97411.00;;;;5015894;28;20185;-89
2022/11/02 01:12:56;;;;;;;7.17;5.77;;;12.60;99.90;13.90;97404.00;;;;5026656;28;20611;-89
2022/11/02 01:15:45;;;;;;;9.93;5.93;;;12.60;99.90;13.80;97406.00;;;;5020429;28;20228;-90
2022/11/02 01:18:33;;;;;;;6.73;4.87;;;12.50;99.90;13.90;97404.00;;;;5099224;23;20280;-67
2022/11/02 01:21:23;;;;;;;10.13;6.37;;;12.50;99.90;13.90;97403.00;;;;5077432;28;20253;-67
2022/11/02 01:24:12;;;;;;;8.63;5.47;;;12.50;99.90;14.00;97397.00;;;;5088914;28;20211;-66
2022/11/02 01:27:01;;;;;;;7.97;6.23;;;12.50;99.90;13.90;97407.00;;;;5063405;28;20702;-67
2022/11/02 01:29:51;;;;;;;5.20;4.63;;;12.60;99.90;13.90;97390.00;;;;5062005;28;20286;-67
2022/11/02 01:32:40;;;;;;;8.47;5.20;;;12.50;99.90;14.10;97396.00;;;;5067467;28;20200;-67
2022/11/02 01:35:28;;;;;;;13.27;5.90;;;12.60;99.90;14.10;97401.00;;;;5068406;28;20224;-66
2022/11/02 01:38:17;;;;;;;7.43;5.17;;;12.60;99.90;14.20;97398.00;;;;5067462;28;20211;-66
2022/11/02 01:41:06;;;;;;;4.97;4.50;;;12.60;99.90;13.90;97390.00;;;;5059971;28;20237;-67
2022/11/02 01:43:59;;;;;;;6.07;5.17;;;12.60;99.90;13.60;97394.00;;;;5059882;28;20257;-67
2022/11/02 01:46:50;;;;;;;11.30;5.70;;;12.50;99.90;13.70;97388.00;;;;5067471;28;20753;-67
2022/11/02 01:49:43;;;;;;;9.23;5.67;;;12.50;99.90;13.70;97394.00;;;;5064632;28;20196;-66
2022/11/02 01:52:35;;;;;;;8.67;5.30;;;12.40;99.90;13.70;97391.00;;;;5068332;28;20200;-66
2022/11/02 01:55:29;;;;;;;12.57;5.67;;;12.40;99.90;13.60;97394.00;;;;5057511;28;20310;-67
2022/11/02 01:58:18;;;;;;;5.63;4.57;;;12.40;99.90;13.40;97390.00;;;;5066202;28;20208;-67
2022/11/02 02:01:06;;;;;;;7.67;5.57;;;12.30;99.90;13.40;97381.00;;;;5064447;28;20224;-67
2022/11/02 02:03:57;;;;;;;6.60;5.30;;;12.30;99.90;13.70;97390.00;;;;5080237;22;20227;-69
2022/11/02 02:06:46;;;;;;;12.53;5.43;;;12.30;99.90;13.80;97383.00;;;;5079207;28;20234;-69
2022/11/02 02:09:35;;;;;;;5.53;4.40;;;12.30;99.90;13.90;97385.00;;;;5083297;28;20297;-68
2022/11/02 02:12:25;;;;;;;8.73;5.63;;;12.30;99.90;13.90;97388.00;;;;5076001;28;20207;-69
2022/11/02 02:15:14;;;;;;;7.60;4.50;;;12.30;99.90;13.90;97386.00;;;;5054772;28;20256;-69
2022/11/02 02:18:11;;;;;;;8.37;5.13;;;12.40;99.90;13.90;97382.00;;;;5069196;28;20293;-68
2022/11/02 02:21:19;;;;;;;11.70;4.67;;;12.40;99.90;13.90;97398.00;;;;5072719;28;20235;-68
2022/11/02 02:24:43;;;;;;;12.73;4.87;;;12.40;99.90;13.70;97410.00;;;;5072923;28;20231;-68
2022/11/02 02:27:51;;;;;;;6.50;5.10;;;12.40;99.90;13.80;97401.00;;;;5072336;28;20670;-69
2022/11/02 02:30:46;;;;;;;5.03;4.53;;;12.40;99.90;13.80;97398.00;;;;5061574;28;20183;-68
2022/11/02 02:33:42;;;;;;;8.67;5.10;;;12.40;99.90;13.90;97397.00;;;;5063315;28;20232;-69
2022/11/02 02:36:35;;;;;;;7.57;4.40;;;12.40;99.90;13.90;97409.00;;;;5063524;28;20274;-68
2022/11/02 02:39:30;;;;;;;7.03;5.23;;;12.40;99.90;13.80;97413.00;;;;5071930;28;20204;-68
2022/11/02 02:42:23;;;;;;;8.53;4.90;;;12.30;99.90;13.60;97412.00;;;;5061381;28;20284;-68
2022/11/02 02:45:19;;;;;;;7.30;4.87;;;12.30;99.90;13.60;97413.00;;;;5059234;28;20251;-68
2022/11/02 02:48:13;;;;;;;12.13;4.93;;;12.30;99.90;13.80;97416.00;;;;5060677;28;20199;-68
2022/11/02 02:51:07;;;;;;;10.57;5.67;;;12.30;99.90;13.80;97412.00;;;;5060559;28;21494;-69
2022/11/02 02:54:02;;;;;;;6.83;5.53;;;12.30;99.90;13.50;97404.00;;;;5059261;28;20274;-69
2022/11/02 02:56:57;;;;;;;6.07;4.63;;;12.30;99.90;13.60;97404.00;;;;5062155;28;20203;-68
2022/11/02 02:59:47;;;;;;;13.00;6.07;;;12.30;99.90;13.50;97406.00;;;;5070907;28;20245;-68
2022/11/02 03:02:39;;;;;;;8.20;4.60;;;12.20;99.90;13.40;97406.00;;;;5062795;28;20309;-68
2022/11/02 03:05:32;;;;;;;9.43;4.83;;;12.20;99.90;13.30;97412.00;;;;5072587;28;20235;-68
2022/11/02 03:08:21;;;;;;;7.57;4.70;;;12.20;99.90;13.20;97413.00;;;;5061361;28;20208;-68
2022/11/02 03:11:15;;;;;;;7.63;5.40;;;12.10;99.90;13.20;97422.00;;;;5084111;28;20228;-69
2022/11/02 03:14:11;;;;;;;6.17;4.97;;;12.10;99.90;13.40;97411.00;;;;5071406;28;20251;-69
2022/11/02 03:17:15;;;;;;;9.53;5.70;;;12.00;99.90;13.20;97419.00;;;;5073088;28;20623;-68
2022/11/02 03:20:19;;;;;;;7.13;5.13;;;12.00;99.90;13.10;97412.00;;;;5073139;28;20246;-68
2022/11/02 03:23:13;;;;;;;7.13;4.73;;;11.90;99.90;13.00;97413.00;;;;5063070;28;20663;-69
2022/11/02 03:26:07;;;;;;;10.50;6.03;;;11.90;99.90;12.90;97410.00;;;;5064344;28;20296;-68
2022/11/02 03:29:04;;;;;;;8.17;5.47;;;11.80;99.90;12.90;97410.00;;;;5059266;28;20199;-68
2022/11/02 03:31:58;;;;;;;8.20;5.80;;;11.70;99.90;12.90;97415.00;;;;5070133;28;20928;-68
2022/11/02 03:34:50;;;;;;;6.97;6.20;;;11.70;99.90;12.70;97415.00;;;;5071964;28;20227;-68
2022/11/02 03:37:46;;;;;;;8.87;4.93;;;11.70;99.90;12.90;97422.00;;;;5064509;28;20723;-68
2022/11/02 03:40:42;;;;;;;7.73;4.03;;;11.60;99.90;12.90;97423.00;;;;5058706;28;20778;-68
2022/11/02 03:43:35;;;;;;;8.60;4.90;;;11.60;99.90;12.70;97426.00;;;;5063271;28;20207;-68
2022/11/02 03:46:25;;;;;;;7.47;6.20;;;11.50;99.90;12.50;97424.00;;;;5071929;28;20309;-68
2022/11/02 03:49:17;;;;;;;7.57;5.87;;;11.50;99.90;12.70;97419.00;;;;5070071;28;20629;-68
2022/11/02 03:52:12;;;;;;;6.63;4.93;;;11.40;99.90;12.70;97416.00;;;;5054937;28;20250;-68
2022/11/02 03:55:09;;;;;;;6.43;4.90;;;11.40;99.90;12.50;97421.00;;;;5068776;28;20302;-69
2022/11/02 03:57:59;;;;;;;5.40;4.77;;;11.30;99.90;12.30;97421.00;;;;5067123;28;20224;-68
2022/11/02 04:00:52;;;;;;;6.97;5.10;;;11.30;99.90;12.50;97428.00;;;;5066207;28;20192;-68
2022/11/02 04:03:45;;;;;;;9.57;5.67;;;11.20;99.90;12.30;97428.00;;;;5056784;28;20262;-68
2022/11/02 04:06:35;;;;;;;9.07;5.27;;;11.20;99.90;12.40;97429.00;;;;5057369;28;20719;-68
2022/11/02 04:09:24;;;;;;;7.13;4.97;;;11.20;99.90;12.20;97421.00;;;;5059258;28;20435;-68
2022/11/02 04:15:20;;;;;;;7.55;5.13;;;11.00;99.90;11.20;97431.00;;;;5057673;28;20429;-68
2022/11/02 04:21:15;;;;;;;6.63;5.53;;;10.60;99.90;11.80;97434.00;;;;5065042;28;20237;-68
2022/11/02 04:27:10;;;;;;;10.87;5.10;;;10.60;99.90;12.10;97426.00;;;;5070914;28;20249;-68
2022/11/02 04:30:01;;;;;;;9.60;6.40;;;10.60;99.90;12.10;97426.00;;;;5069928;28;20196;-68
2022/11/02 04:36:00;;;;;;;7.77;5.33;;;10.70;99.90;11.90;97444.00;;;;5057572;28;20252;-68
2022/11/02 04:38:48;;;;;;;6.07;4.97;;;10.60;99.90;11.90;97449.00;;;;5063797;28;20231;-68
2022/11/02 04:41:42;;;;;;;8.33;5.97;;;10.60;99.90;11.70;97450.00;;;;5069796;28;20675;-68
2022/11/02 04:44:31;;;;;;;8.17;5.43;;;10.60;99.90;11.80;97438.00;;;;5070371;28;20425;-68
2022/11/02 04:47:21;;;;;;;9.20;6.27;;;10.60;99.90;12.00;97442.00;;;;5060002;28;20253;-68
2022/11/02 04:50:10;;;;;;;8.77;4.83;;;10.60;99.90;12.00;97442.00;;;;5069859;28;20305;-68
2022/11/02 04:52:59;;;;;;;5.43;4.50;;;10.60;99.90;11.60;97435.00;;;;5064586;28;20278;-68
2022/11/02 04:55:48;;;;;;;5.73;3.97;;;10.60;99.90;11.50;97437.00;;;;5069336;28;20269;-68
2022/11/02 04:58:37;;;;;;;7.07;4.83;;;10.50;99.90;11.50;97446.00;;;;5068785;28;20249;-68
2022/11/02 05:01:28;;;;;;;9.07;4.93;;;10.40;99.90;11.60;97438.00;;;;5068710;28;20258;-68
2022/11/02 05:04:18;;;;;;;9.27;5.00;;;10.40;99.90;11.70;97446.00;;;;5068859;28;20249;-68
2022/11/02 05:07:07;;;;;;;8.77;5.43;;;10.40;99.90;11.40;97445.00;;;;5060831;28;20231;-68
2022/11/02 05:09:56;;;;;;;8.33;5.67;;;10.30;99.90;11.40;97445.00;;;;5066103;28;20207;-68
2022/11/02 05:12:44;;;;;;;11.27;6.20;;;10.30;99.90;11.30;97451.00;;;;5069775;28;20292;-68
2022/11/02 05:15:33;;;;;;;8.03;5.37;;;10.30;99.90;11.40;97448.00;;;;5063871;28;20379;-68
2022/11/02 05:18:22;;;;;;;5.53;5.00;;;10.30;99.90;11.10;97452.00;;;;5070241;28;20691;-68
2022/11/02 05:21:13;;;;;;;8.83;5.77;;;10.20;99.90;11.00;97457.00;;;;5070275;28;20277;-68
2022/11/02 05:24:01;;;;;;;8.73;6.55;;;10.10;99.90;10.70;97450.00;;;;5067703;28;20451;-68
2022/11/02 05:26:50;;;;;;;11.03;6.30;;;10.10;99.90;11.10;97452.00;;;;5059086;28;20239;-68
2022/11/02 05:29:40;;;;;;;6.03;4.67;;;10.00;99.90;11.30;97451.00;;;;5058068;28;20199;-68
2022/11/02 05:32:28;;;;;;;12.97;6.07;;;10.10;99.90;11.50;97462.00;;;;5058829;28;20210;-68
2022/11/02 05:35:17;;;;;;;6.40;5.37;;;10.20;99.90;11.60;97457.00;;;;5065808;28;20709;-68
2022/11/02 05:38:07;;;;;;;12.13;5.57;;;10.20;99.90;11.60;97457.00;;;;5067881;28;20324;-68
2022/11/02 05:40:58;;;;;;;9.40;5.97;;;10.20;99.90;11.50;97465.00;;;;5062549;28;20233;-68
2022/11/02 05:43:47;;;;;;;6.27;4.73;;;10.20;99.90;11.50;97466.00;;;;5063255;28;20228;-68
2022/11/02 05:46:36;;;;;;;7.20;5.03;;;10.30;99.90;11.60;97465.00;;;;5070198;28;20207;-68
2022/11/02 05:49:25;;;;;;;7.20;5.93;;;10.30;99.90;11.40;97458.00;;;;5069069;28;20212;-68
2022/11/02 05:52:14;;;;;;;7.43;5.43;;;10.30;99.90;11.30;97467.00;;;;5053744;28;20331;-68
2022/11/02 05:55:08;;;;;;;7.97;5.43;;;10.20;99.90;11.40;97460.00;;;;5058191;28;20220;-68
2022/11/02 05:57:57;;;;;;;7.73;5.67;;;10.20;99.90;11.50;97463.00;;;;5059211;28;20278;-68
2022/11/02 06:00:45;;;;;;;10.17;5.93;;;10.20;99.90;11.40;97465.00;;;;5064971;28;20238;-68
2022/11/02 06:03:35;;;;;;;10.70;4.73;;;10.20;99.90;11.10;97468.00;;;;5058395;28;20196;-68
2022/11/02 06:06:23;;;;;;;11.03;6.30;;;10.20;99.90;11.10;97470.00;;;;5063661;28;20219;-68
2022/11/02 06:09:12;;;;;;;10.77;5.60;;;10.10;99.90;11.20;97475.00;;;;5068788;28;20231;-68
2022/11/02 06:12:02;;;;;;;7.37;5.17;;;10.10;99.90;11.30;97477.00;;;;5060132;28;20204;-68
2022/11/02 06:14:51;;;;;;;12.33;6.63;;;10.00;99.90;11.40;97480.00;;;;5058294;28;20212;-68
2022/11/02 06:17:40;;;;;;;6.13;4.93;;;10.10;99.90;11.50;97483.00;;;;5061833;28;20200;-68
2022/11/02 06:20:29;;;;;;;8.50;4.77;;;10.10;99.90;11.50;97477.00;;;;5058866;28;20285;-68
2022/11/02 06:23:18;;;;;;;9.03;5.20;;;10.10;99.90;11.70;97483.00;;;;5067475;28;20659;-68
2022/11/02 06:26:06;;;;;;;11.23;5.17;;;10.20;99.90;11.70;97492.00;;;;5050216;28;20672;-68
2022/11/02 06:28:56;;;;;;;6.80;4.87;;;10.30;99.90;11.80;97495.00;;;;5060128;28;20278;-68
2022/11/02 06:31:45;;;;;;;8.33;5.33;;;10.30;99.90;11.60;97501.00;;;;5059295;28;20231;-68
2022/11/02 06:34:34;;;;;;;11.47;6.40;;;10.30;99.90;11.60;97501.00;;;;5063330;28;20798;-68
2022/11/02 06:37:22;;;;;;;7.83;5.13;;;10.40;99.90;11.40;97510.00;;;;5052134;28;20971;-68
2022/11/02 06:40:13;;;;;;;6.17;4.60;;;10.30;99.90;11.30;97504.00;;;;5061871;28;20200;-68
2022/11/02 06:43:02;;;;;;;7.13;4.70;;;10.30;99.90;11.40;97503.00;;;;5055554;28;20232;-68
2022/11/02 06:46:04;;;;;;;7.30;5.13;;;10.30;99.90;11.30;97510.00;;;;5057638;28;20196;-68
2022/11/02 06:48:53;;;;;;;6.13;5.47;;;10.30;99.90;11.30;97509.00;;;;5056677;28;20655;-68
2022/11/02 06:51:41;;;;;;;11.27;4.60;;;10.30;99.90;11.70;97518.00;;;;5062151;28;20207;-68
2022/11/02 06:54:30;;;;;;;8.90;5.50;;;10.40;99.90;11.50;97516.00;;;;5059971;28;20261;-67
2022/11/02 06:57:19;;;;;;;9.10;5.80;;;10.40;99.90;11.40;97517.00;;;;5056456;28;20265;-68
2022/11/02 07:00:12;;;;;;;8.40;5.27;;;10.40;99.90;11.60;97519.00;;;;5062298;28;20202;-68
2022/11/02 07:03:04;;;;;;;5.70;4.43;;;10.40;99.90;11.80;97513.00;;;;5059427;28;20291;-67
2022/11/02 07:05:54;;;;;;;5.40;4.83;;;10.50;99.90;12.00;97523.00;;;;5062603;28;20202;-67
2022/11/02 07:08:42;;;;;;;8.10;5.50;;;10.60;99.90;11.80;97518.00;;;;5062256;28;20663;-68
2022/11/02 07:11:32;;;;;;;11.23;6.43;;;10.60;99.90;11.40;97518.00;;;;5062311;28;20668;-68
2022/11/02 07:14:20;;;;;;;10.80;5.30;;;10.60;99.90;11.30;97513.00;;;;5059159;28;20224;-68
2022/11/02 07:17:09;;;;;;;14.93;8.87;;;10.50;99.90;11.30;97514.00;;;;5060932;28;20216;-67
2022/11/02 07:19:59;;;;;;;10.87;6.03;;;10.40;99.90;11.50;97521.00;;;;5060410;28;20296;-67
2022/11/02 07:22:53;;;;;;;6.53;5.73;;;10.40;99.90;11.50;97516.00;;;;5064106;28;20192;-67
2022/11/02 07:25:42;;;;;;;8.10;4.80;;;10.50;99.90;11.70;97510.00;;;;5059430;28;20224;-67
2022/11/02 07:28:31;;;;;;;8.53;4.73;;;10.50;99.90;11.50;97515.00;;;;5065969;28;20224;-67
2022/11/02 07:31:19;;;;;;;8.33;5.73;;;10.50;99.90;11.60;97518.00;;;;5058026;28;20606;-67
2022/11/02 07:34:08;;;;;;;7.87;4.47;;;10.50;99.90;11.60;97518.00;;;;5064029;28;20650;-67
2022/11/02 07:37:00;;;;;;;13.60;6.43;;;10.60;99.90;11.90;97528.00;;;;5055720;28;20227;-67
2022/11/02 07:39:49;;;;;;;6.37;4.47;;;10.70;99.90;11.70;97515.00;;;;5053878;28;20225;-68
2022/11/02 07:42:45;;;;;;;5.33;4.77;;;10.70;99.90;11.70;97509.00;;;;5061644;28;20204;-67
2022/11/02 07:45:34;;;;;;;11.47;4.83;;;10.60;99.90;11.90;97505.00;;;;5070451;28;20223;-68
2022/11/02 07:48:22;;;;;;;7.67;5.17;;;10.70;99.90;12.20;97522.00;;;;5059410;28;20231;-67
2022/11/02 07:51:17;;;;;;;6.37;5.13;;;10.80;99.90;12.50;97520.00;;;;5059808;28;20276;-67
2022/11/02 07:54:07;;;;;;;7.70;4.40;;;11.00;99.90;12.50;97516.00;;;;5058519;28;20255;-67
2022/11/02 07:56:58;;;;;;;6.57;4.10;;;11.10;99.90;12.40;97518.00;;;;5066246;28;20595;-67
2022/11/02 07:59:47;;;;;;;10.00;5.50;;;11.20;99.90;12.60;97520.00;;;;5061674;28;20200;-68
2022/11/02 08:02:36;;;;;;;5.77;4.67;;;11.30;99.90;12.70;97516.00;;;;5069680;28;20293;-67
2022/11/02 08:05:35;;;;;;;10.07;5.43;;;11.40;99.90;12.90;97517.00;;;;5059680;22;20233;-89
2022/11/02 08:08:28;;;;;;;11.87;5.50;;;11.40;99.90;12.90;97518.00;;;;5049848;28;20215;-86
2022/11/02 08:11:19;;;;;;;7.97;5.20;;;11.60;99.90;13.10;97518.00;;;;5029581;28;20206;-89
2022/11/02 08:14:08;;;;;;;7.83;4.63;;;11.60;99.90;13.30;97517.00;;;;5030246;28;20255;-89
2022/11/02 08:16:57;;;;;;;7.47;5.17;;;11.80;99.90;13.30;97518.00;;;;5024312;28;20252;-88
2022/11/02 08:19:47;;;;;;;13.37;6.43;;;11.90;99.90;13.60;97523.00;;;;5028036;28;20217;-88
2022/11/02 08:22:38;;;;;;;8.17;5.93;;;12.00;99.90;13.90;97519.00;;;;5027951;28;20767;-89
2022/11/02 08:25:27;;;;;;;9.00;5.47;;;12.20;99.90;14.20;97526.00;;;;5033133;28;20200;-88
2022/11/02 08:28:21;;;;;;;9.63;5.77;;;12.40;99.90;14.10;97528.00;;;;5023383;28;20456;-87
2022/11/02 08:31:15;;;;;;;6.70;4.27;;;12.60;99.90;13.90;97517.00;;;;5029205;28;20193;-89
2022/11/02 08:34:04;;;;;;;6.70;5.17;;;12.70;99.90;14.10;97510.00;;;;5029430;28;20200;-89
2022/11/02 08:36:54;;;;;;;7.97;4.97;;;12.70;99.90;14.20;97514.00;;;;5029963;28;20900;-88
2022/11/02 08:39:42;;;;;;;7.20;5.93;;;12.80;99.90;14.40;97512.00;;;;5028736;28;20232;-87
2022/11/02 08:42:31;;;;;;;12.97;5.87;;;12.90;99.90;14.60;97519.00;;;;5027614;28;20212;-88
2022/11/02 08:45:22;;;;;;;7.10;5.57;;;13.00;99.90;15.10;97520.00;;;;5024476;28;20220;-88
2022/11/02 08:48:12;;;;;;;8.37;5.87;;;13.20;99.90;15.60;97516.00;;;;5026153;28;20758;-88
2022/11/02 08:51:01;;;;;;;10.10;6.93;;;13.40;99.90;16.00;97515.00;;;;5030961;28;20626;-87
2022/11/02 08:53:50;;;;;;;13.60;7.70;;;13.70;99.90;16.20;97513.00;;;;5028917;28;20567;-88
2022/11/02 08:56:39;;;;;;;10.73;6.83;;;14.00;99.90;16.40;97517.00;;;;5028069;28;20243;-88
2022/11/02 08:59:28;;;;;;;8.17;6.03;;;14.30;99.90;16.50;97505.00;;;;5025598;28;20236;-87
2022/11/02 09:02:18;;;;;;;16.30;9.83;;;14.50;99.90;16.70;97514.00;;;;5025594;28;20669;-88
2022/11/02 09:05:08;;;;;;;8.50;6.13;;;14.70;99.90;16.90;97520.00;;;;5028249;28;20210;-88
2022/11/02 09:07:59;;;;;;;10.30;6.57;;;14.80;99.90;17.10;97521.00;;;;5028461;28;20202;-89
2022/11/02 09:10:52;;;;;;;10.53;6.20;;;15.00;99.90;17.40;97517.00;;;;5028820;28;20235;-87
2022/11/02 09:13:41;;;;;;;13.30;6.50;;;15.30;99.90;17.60;97522.00;;;;5028548;28;20312;-87
2022/11/02 09:16:29;;;;;;;13.67;6.23;;;15.50;99.90;17.40;97528.00;;;;5027093;28;20212;-89
2022/11/02 09:19:20;;;;;;;8.57;6.13;;;15.60;99.90;17.10;97537.00;;;;5030799;28;20231;-88
2022/11/02 09:22:08;;;;;;;10.27;5.80;;;15.60;99.90;17.00;97528.00;;;;5024220;28;20196;-87
2022/11/02 09:24:58;;;;;;;10.27;6.00;;;15.50;99.90;17.10;97525.00;;;;5028636;28;20255;-88
2022/11/02 09:27:52;;;;;;;5.80;5.20;;;15.50;99.90;17.50;97518.00;;;;5027150;28;20198;-89
2022/11/02 09:30:43;;;;;;;9.83;7.00;;;15.60;99.90;17.70;97530.00;;;;5026960;28;20602;-88
2022/11/02 09:33:33;;;;;;;8.13;5.57;;;15.70;99.90;17.90;97524.00;;;;5023791;28;20790;-88
2022/11/02 09:36:23;;;;;;;9.23;6.60;;;15.90;99.90;18.10;97533.00;;;;5031391;28;20205;-88
2022/11/02 09:39:12;;;;;;;10.80;6.27;;;16.00;99.90;18.30;97529.00;;;;5029871;28;20229;-88
2022/11/02 09:42:10;;;;;;;9.13;5.60;;;16.20;99.90;18.70;97528.00;;;;5026015;28;20717;-88
2022/11/02 09:45:02;;;;;;;9.33;5.40;;;16.40;99.90;19.10;97526.00;;;;5029383;28;20197;-88
2022/11/02 09:47:57;;;;;;;7.73;4.93;;;16.70;99.90;19.30;97518.00;;;;5031225;28;20204;-88
2022/11/02 09:51:10;;;;;;;9.43;5.17;;;17.00;99.90;19.60;97511.00;;;;5032089;28;20221;-88
2022/11/02 09:54:08;;;;;;;12.20;5.00;;;17.40;99.90;20.20;97515.00;;;;5030997;28;20235;-88
2022/11/02 09:57:04;;;;;;;10.87;5.07;;;17.70;99.90;20.40;97501.00;;;;5028921;28;20205;-88
2022/11/02 09:59:53;;;;;;;9.23;4.57;;;18.00;99.90;21.10;97505.00;;;;5025686;28;20224;-88
2022/11/02 10:02:55;;;;;;;6.37;4.23;;;18.40;99.90;21.40;97522.00;;;;5031520;28;20246;-88
2022/11/02 10:05:53;;;;;;;13.80;4.73;;;18.80;99.90;20.90;97521.00;;;;5029341;28;20205;-88
2022/11/02 10:08:56;;;;;;;7.77;4.90;;;18.90;99.90;20.60;97515.00;;;;5030808;28;20208;-88
2022/11/02 10:11:57;;;;;;;6.80;4.43;;;18.90;99.90;20.60;97505.00;;;;5026204;28;20212;-88
2022/11/02 10:14:57;;;;;;;7.00;4.00;;;18.90;99.90;20.70;97518.00;;;;5031424;28;20704;-89
2022/11/02 10:17:49;;;;;;;7.47;4.30;;;18.80;99.90;20.90;97516.00;;;;5026459;28;20299;-88
2022/11/02 10:20:44;;;;;;;6.50;3.60;;;18.90;99.90;20.80;97516.00;;;;5026521;28;20221;-88
2022/11/02 10:23:39;;;;;;;7.73;4.07;;;18.90;99.90;21.00;97510.00;;;;5029293;28;20288;-88
2022/11/02 10:26:33;;;;;;;10.73;6.67;;;18.90;99.90;21.50;97519.00;;;;5026739;28;20200;-89
2022/11/02 10:29:43;;;;;;;8.00;4.87;;;19.10;99.90;21.80;97509.00;;;;5030770;28;20259;-89
2022/11/02 10:32:35;;;;;;;7.63;3.47;;;19.40;99.90;21.90;97513.00;;;;5025194;28;20348;-89
2022/11/02 10:35:34;;;;;;;11.77;4.43;;;19.90;99.90;21.10;97517.00;;;;5031989;28;20205;-89
2022/11/02 10:38:47;;;;;;;6.97;4.40;;;20.00;99.90;21.20;97499.00;;;;5029737;28;20224;-88
2022/11/02 10:42:00;;;;;;;7.53;4.10;;;19.80;99.90;21.30;97504.00;;;;5032745;28;20208;-89
2022/11/02 10:45:20;;;;;;;8.43;4.17;;;19.60;99.90;21.20;97504.00;;;;5047873;28;20208;-88
2022/11/02 10:48:28;;;;;;;4.97;3.70;;;19.50;99.90;21.10;97502.00;;;;5026544;28;20205;-88
2022/11/02 10:51:23;;;;;;;7.00;3.90;;;19.40;99.90;20.90;97499.00;;;;5026711;28;20221;-89
2022/11/02 10:54:15;;;;;;;10.07;4.23;;;19.30;99.90;20.80;97496.00;;;;5033798;28;20213;-91
2022/11/02 10:57:12;;;;;;;8.57;4.33;;;19.20;99.90;20.70;97495.00;;;;5033852;28;20206;-89
2022/11/02 11:00:29;;;;;;;9.33;3.83;;;19.10;99.90;20.60;97500.00;;;;5033040;28;20355;-89
2022/11/02 11:03:19;;;;;;;7.90;3.93;;;19.00;99.90;20.00;97488.00;;;;5031790;28;20669;-90
2022/11/02 11:06:12;;;;;;;7.23;4.07;;;18.80;99.90;19.90;97497.00;;;;5024564;28;20205;-89
2022/11/02 11:09:06;;;;;;;6.67;4.57;;;18.60;99.90;20.10;97512.00;;;;5026080;28;20201;-89
2022/11/02 11:11:58;;;;;;;8.90;4.83;;;18.50;99.90;20.10;97499.00;;;;5025766;28;20200;-89
2022/11/02 11:14:56;;;;;;;8.47;4.80;;;18.40;99.90;20.20;97490.00;;;;5026208;28;20260;-89
2022/11/02 11:18:14;;;;;;;7.70;4.27;;;18.60;99.90;20.20;97490.00;;;;5027735;28;20225;-89
2022/11/02 11:21:35;;;;;;;5.73;4.27;;;18.30;99.90;20.10;97492.00;;;;5030157;28;20198;-89
2022/11/02 11:24:28;;;;;;;5.57;4.27;;;18.30;99.90;20.10;97491.00;;;;5027651;28;20232;-89
2022/11/02 11:27:25;;;;;;;12.33;4.30;;;18.30;99.90;20.20;97487.00;;;;5028372;28;20208;-89
2022/11/02 11:30:26;;;;;;;11.30;4.10;;;18.30;99.90;20.20;97485.00;;;;5028214;28;20225;-89
2022/11/02 11:33:29;;;;;;;7.90;4.00;;;18.30;99.90;20.30;97475.00;;;;5025126;28;20213;-88
2022/11/02 11:36:29;;;;;;;10.23;4.83;;;18.30;99.90;20.30;97472.00;;;;5022322;28;20292;-88
2022/11/02 11:39:36;;;;;;;6.63;4.10;;;18.00;99.90;20.40;97469.00;;;;5026024;28;20232;-89
2022/11/02 11:42:31;;;;;;;8.63;4.00;;;18.50;99.90;20.60;97474.00;;;;5026051;28;20216;-89
2022/11/02 11:45:29;;;;;;;10.20;4.67;;;18.60;99.90;20.90;97472.00;;;;5023386;28;20201;-90
2022/11/02 11:48:30;;;;;;;7.43;4.50;;;18.70;99.90;20.90;97470.00;;;;5027353;28;20232;-89
2022/11/02 11:51:32;;;;;;;8.97;3.97;;;18.80;99.90;21.10;97453.00;;;;5017219;28;20205;-88
2022/11/02 11:54:26;;;;;;;6.93;4.87;;;19.00;99.90;21.30;97464.00;;;;5032055;28;20244;-90
2022/11/02 11:57:26;;;;;;;7.90;4.33;;;19.10;99.90;21.50;97469.00;;;;5022388;28;20580;-89
2022/11/02 12:00:27;;;;;;;8.60;4.17;;;19.20;99.90;21.40;97458.00;;;;5020295;28;20209;-89
2022/11/02 12:03:17;;;;;;;10.87;4.63;;;19.40;99.90;21.50;97459.00;;;;5043026;28;20673;-90
2022/11/02 12:06:22;;;;;;;8.60;4.23;;;19.40;99.90;21.40;97454.00;;;;5032897;28;20213;-89
2022/11/02 12:09:24;;;;;;;10.90;3.70;;;19.40;99.90;21.40;97456.00;;;;5034658;28;20239;-89
2022/11/02 12:12:22;;;;;;;10.90;4.33;;;19.40;99.90;21.40;97458.00;;;;5025709;28;20285;-89
2022/11/02 12:15:25;;;;;;;8.37;4.40;;;19.40;99.90;21.40;97454.00;;;;5028519;28;20202;-89
2022/11/02 12:18:37;;;;;;;7.30;3.83;;;19.40;99.90;21.20;97452.00;;;;5021865;28;20306;-89
2022/11/02 12:21:45;;;;;;;6.50;3.77;;;19.40;99.90;21.30;97447.00;;;;5028155;28;20288;-89
2022/11/02 12:25:24;;;;;;;11.37;4.30;;;19.40;99.90;21.60;97432.00;;;;5018967;28;20255;-89
2022/11/02 12:28:29;;;;;;;7.00;4.50;;;19.50;99.90;21.60;97438.00;;;;5010172;28;20201;-90
2022/11/02 12:31:34;;;;;;;9.93;3.80;;;19.50;99.90;21.80;97438.00;;;;5025475;28;20560;-90
2022/11/02 12:34:47;;;;;;;8.70;4.40;;;20.60;99.90;21.80;97431.00;;;;5028860;28;20229;-89
2022/11/02 12:38:03;;;;;;;6.00;4.37;;;19.70;99.90;21.80;97427.00;;;;5025169;28;20677;-89
2022/11/02 12:41:02;;;;;;;9.60;3.97;;;19.70;99.90;21.60;97417.00;;;;5030828;28;20218;-90
2022/11/02 12:43:57;;;;;;;6.20;3.87;;;19.70;99.90;21.50;97416.00;;;;5028922;28;20202;-89
2022/11/02 12:46:57;;;;;;;8.70;7.33;;;19.70;99.90;21.60;97411.00;;;;5026849;28;20240;-90
2022/11/02 12:49:51;;;;;;;9.27;4.43;;;19.70;99.90;21.80;97417.00;;;;5038136;28;20275;-89
2022/11/02 12:53:00;;;;;;;9.43;4.40;;;19.70;99.90;21.90;97418.00;;;;5034288;28;20553;-90
2022/11/02 12:55:53;;;;;;;9.90;4.00;;;19.80;99.90;21.90;97420.00;;;;5023690;28;20201;-90
2022/11/02 12:58:42;;;;;;;10.50;3.77;;;19.80;99.90;21.70;97415.00;;;;5038830;28;20642;-90
2022/11/02 13:01:36;;;;;;;15.27;7.57;;;19.80;99.90;21.40;97413.00;;;;5050594;28;20204;-90